ROMMA est une association bénévole à but non lucratif. Votre soutien est indispensable : ADHERER à ROMMA ou FAIRE un DON

Le Versoud - (38, Isère)

Vallée du Grésivaudan (220 m)   Longitude: 05° 51' 44" E   Latitude: 45° 13' 06" N Station partenaire n°6
 

Détail journalier du     <<     >>

Température Precipitation Humidité Pression Vent Dir Rafale Dir. rafale Ensol.
Heure (°C) (mm) (%) (hPa) (km/h) (km/h) (min)
01:00 7.2078102100---0
02:00 6.8079102100---0
03:00 6.6080102100---0
04:00 5.9082102100---0
05:00 5.1084102000---0
06:00 4.5086102000---0
07:00 3.9087102000---0
08:00 3.7090102000---0
09:00 4.0088102000---0
10:00 9.0072101902NE40
11:00 12.1053101902NE60
12:00 14.4046101808ENE55
13:00 16.2039101708ENE30
14:00 18.3034101605ENE55
15:00 19.4029101506NE60
16:00 20.8025101408NE45
17:00 21.402410131NNE16NE60
18:00 21.302810132NE15ENE60
19:00 20.703110132NNE18N60
20:00 18.203910131---15NE30
21:00 15.1045101402N0
22:00 12.8049101400---0
23:00 11.1061101500---0
minuit 10.0064101500---0

Graphique du 31-03-2019

 

Serveur OMMA